sensor_id;sensor_type;location;lat;lon;timestamp;temperature;humidity
38183;DHT22;23991;52.430;10.586;2023-07-30T00:01:44;18.90;74.90
38183;DHT22;23991;52.430;10.586;2023-07-30T00:04:09;18.80;74.80
38183;DHT22;23991;52.430;10.586;2023-07-30T00:06:38;18.80;75.00
38183;DHT22;23991;52.430;10.586;2023-07-30T00:09:04;18.80;75.20
38183;DHT22;23991;52.430;10.586;2023-07-30T00:11:29;18.80;75.30
38183;DHT22;23991;52.430;10.586;2023-07-30T00:13:55;18.80;75.30
38183;DHT22;23991;52.430;10.586;2023-07-30T00:16:20;18.80;75.40
38183;DHT22;23991;52.430;10.586;2023-07-30T00:18:46;18.80;75.70
38183;DHT22;23991;52.430;10.586;2023-07-30T00:21:12;18.80;75.70
38183;DHT22;23991;52.430;10.586;2023-07-30T00:23:37;18.80;75.90
38183;DHT22;23991;52.430;10.586;2023-07-30T00:26:03;18.80;75.90
38183;DHT22;23991;52.430;10.586;2023-07-30T00:28:28;18.80;75.90
38183;DHT22;23991;52.430;10.586;2023-07-30T00:30:54;18.80;75.90
38183;DHT22;23991;52.430;10.586;2023-07-30T00:33:19;18.80;76.10
38183;DHT22;23991;52.430;10.586;2023-07-30T00:35:45;18.80;76.10
38183;DHT22;23991;52.430;10.586;2023-07-30T00:38:10;18.80;76.00
38183;DHT22;23991;52.430;10.586;2023-07-30T00:40:40;18.80;75.90
38183;DHT22;23991;52.430;10.586;2023-07-30T00:43:06;18.80;75.90
38183;DHT22;23991;52.430;10.586;2023-07-30T00:45:32;18.70;75.80
38183;DHT22;23991;52.430;10.586;2023-07-30T00:47:58;18.70;75.80
38183;DHT22;23991;52.430;10.586;2023-07-30T00:50:23;18.70;75.80
38183;DHT22;23991;52.430;10.586;2023-07-30T00:52:50;18.70;75.80
38183;DHT22;23991;52.430;10.586;2023-07-30T00:55:19;18.70;76.00
38183;DHT22;23991;52.430;10.586;2023-07-30T00:57:45;18.60;76.10
38183;DHT22;23991;52.430;10.586;2023-07-30T01:00:11;18.60;76.20
38183;DHT22;23991;52.430;10.586;2023-07-30T01:02:37;18.60;76.20
38183;DHT22;23991;52.430;10.586;2023-07-30T01:05:03;18.60;76.30
38183;DHT22;23991;52.430;10.586;2023-07-30T01:07:32;18.60;76.40
38183;DHT22;23991;52.430;10.586;2023-07-30T01:10:00;18.60;76.50
38183;DHT22;23991;52.430;10.586;2023-07-30T01:12:30;18.60;76.70
38183;DHT22;23991;52.430;10.586;2023-07-30T01:14:57;18.60;76.80
38183;DHT22;23991;52.430;10.586;2023-07-30T01:17:24;18.60;76.60
38183;DHT22;23991;52.430;10.586;2023-07-30T01:19:49;18.60;76.60
38183;DHT22;23991;52.430;10.586;2023-07-30T01:22:20;18.60;76.60
38183;DHT22;23991;52.430;10.586;2023-07-30T01:24:46;18.60;76.60
38183;DHT22;23991;52.430;10.586;2023-07-30T01:27:22;18.50;76.50
38183;DHT22;23991;52.430;10.586;2023-07-30T01:29:53;18.60;76.50
38183;DHT22;23991;52.430;10.586;2023-07-30T01:32:25;18.60;76.40
38183;DHT22;23991;52.430;10.586;2023-07-30T01:34:53;18.50;76.40
38183;DHT22;23991;52.430;10.586;2023-07-30T01:37:19;18.50;76.50
38183;DHT22;23991;52.430;10.586;2023-07-30T01:39:45;18.60;76.70
38183;DHT22;23991;52.430;10.586;2023-07-30T01:42:15;18.50;76.80
38183;DHT22;23991;52.430;10.586;2023-07-30T01:44:44;18.60;76.70
38183;DHT22;23991;52.430;10.586;2023-07-30T01:47:09;18.50;76.90
38183;DHT22;23991;52.430;10.586;2023-07-30T01:49:35;18.50;77.00
38183;DHT22;23991;52.430;10.586;2023-07-30T01:52:01;18.50;77.00
38183;DHT22;23991;52.430;10.586;2023-07-30T01:54:29;18.50;77.10
38183;DHT22;23991;52.430;10.586;2023-07-30T01:56:57;18.50;77.10
38183;DHT22;23991;52.430;10.586;2023-07-30T01:59:23;18.50;77.20
38183;DHT22;23991;52.430;10.586;2023-07-30T02:01:48;18.50;77.40
38183;DHT22;23991;52.430;10.586;2023-07-30T02:04:14;18.40;77.70
38183;DHT22;23991;52.430;10.586;2023-07-30T02:06:40;18.40;77.80
38183;DHT22;23991;52.430;10.586;2023-07-30T02:09:05;18.40;77.90
38183;DHT22;23991;52.430;10.586;2023-07-30T02:11:31;18.40;78.00
38183;DHT22;23991;52.430;10.586;2023-07-30T02:13:56;18.50;78.00
38183;DHT22;23991;52.430;10.586;2023-07-30T02:16:22;18.50;78.10
38183;DHT22;23991;52.430;10.586;2023-07-30T02:18:47;18.40;78.20
38183;DHT22;23991;52.430;10.586;2023-07-30T02:21:16;18.50;78.10
38183;DHT22;23991;52.430;10.586;2023-07-30T02:23:47;18.50;78.30
38183;DHT22;23991;52.430;10.586;2023-07-30T02:26:15;18.40;78.50
38183;DHT22;23991;52.430;10.586;2023-07-30T02:28:44;18.50;78.60
38183;DHT22;23991;52.430;10.586;2023-07-30T02:31:10;18.50;78.60
38183;DHT22;23991;52.430;10.586;2023-07-30T02:33:38;18.50;78.60
38183;DHT22;23991;52.430;10.586;2023-07-30T02:36:04;18.50;78.70
38183;DHT22;23991;52.430;10.586;2023-07-30T02:38:32;18.50;78.90
38183;DHT22;23991;52.430;10.586;2023-07-30T02:41:00;18.50;78.90
38183;DHT22;23991;52.430;10.586;2023-07-30T02:43:26;18.50;79.00
38183;DHT22;23991;52.430;10.586;2023-07-30T02:45:54;18.50;78.90
38183;DHT22;23991;52.430;10.586;2023-07-30T02:48:20;18.50;78.90
38183;DHT22;23991;52.430;10.586;2023-07-30T02:50:45;18.50;78.90
38183;DHT22;23991;52.430;10.586;2023-07-30T02:53:13;18.50;79.00
38183;DHT22;23991;52.430;10.586;2023-07-30T02:55:39;18.50;79.10
38183;DHT22;23991;52.430;10.586;2023-07-30T02:58:05;18.50;79.30
38183;DHT22;23991;52.430;10.586;2023-07-30T03:00:30;18.40;79.30
38183;DHT22;23991;52.430;10.586;2023-07-30T03:02:56;18.40;79.50
38183;DHT22;23991;52.430;10.586;2023-07-30T03:05:22;18.40;79.60
38183;DHT22;23991;52.430;10.586;2023-07-30T03:07:51;18.40;79.60
38183;DHT22;23991;52.430;10.586;2023-07-30T03:10:16;18.40;79.60
38183;DHT22;23991;52.430;10.586;2023-07-30T03:12:42;18.40;79.70
38183;DHT22;23991;52.430;10.586;2023-07-30T03:15:11;18.40;79.80
38183;DHT22;23991;52.430;10.586;2023-07-30T03:17:36;18.40;79.80
38183;DHT22;23991;52.430;10.586;2023-07-30T03:20:02;18.40;79.80
38183;DHT22;23991;52.430;10.586;2023-07-30T03:22:38;18.30;80.00
38183;DHT22;23991;52.430;10.586;2023-07-30T03:25:04;18.30;80.00
38183;DHT22;23991;52.430;10.586;2023-07-30T03:27:30;18.30;80.10
38183;DHT22;23991;52.430;10.586;2023-07-30T03:29:59;18.30;80.10
38183;DHT22;23991;52.430;10.586;2023-07-30T03:32:29;18.30;80.20
38183;DHT22;23991;52.430;10.586;2023-07-30T03:34:58;18.30;80.20
38183;DHT22;23991;52.430;10.586;2023-07-30T03:37:23;18.30;80.10
38183;DHT22;23991;52.430;10.586;2023-07-30T03:39:49;18.30;80.20
38183;DHT22;23991;52.430;10.586;2023-07-30T03:42:15;18.30;80.10
38183;DHT22;23991;52.430;10.586;2023-07-30T03:44:41;18.30;80.10
38183;DHT22;23991;52.430;10.586;2023-07-30T03:47:09;18.30;80.20
38183;DHT22;23991;52.430;10.586;2023-07-30T03:49:38;18.30;80.20
38183;DHT22;23991;52.430;10.586;2023-07-30T03:52:06;18.30;80.20
38183;DHT22;23991;52.430;10.586;2023-07-30T03:54:32;18.30;80.10
38183;DHT22;23991;52.430;10.586;2023-07-30T03:56:57;18.30;80.00
38183;DHT22;23991;52.430;10.586;2023-07-30T03:59:23;18.30;79.90
38183;DHT22;23991;52.430;10.586;2023-07-30T04:01:49;18.30;79.60
38183;DHT22;23991;52.430;10.586;2023-07-30T04:04:14;18.30;79.70
38183;DHT22;23991;52.430;10.586;2023-07-30T04:06:43;18.40;79.30
38183;DHT22;23991;52.430;10.586;2023-07-30T04:09:08;18.50;79.00
38183;DHT22;23991;52.430;10.586;2023-07-30T04:11:34;18.50;78.80
38183;DHT22;23991;52.430;10.586;2023-07-30T04:14:02;18.50;78.60
38183;DHT22;23991;52.430;10.586;2023-07-30T04:16:30;18.50;78.30
38183;DHT22;23991;52.430;10.586;2023-07-30T04:18:55;18.60;78.10
38183;DHT22;23991;52.430;10.586;2023-07-30T04:21:24;18.70;77.60
38183;DHT22;23991;52.430;10.586;2023-07-30T04:23:50;18.80;77.30
38183;DHT22;23991;52.430;10.586;2023-07-30T04:26:16;18.80;76.90
38183;DHT22;23991;52.430;10.586;2023-07-30T04:28:42;18.80;76.70
38183;DHT22;23991;52.430;10.586;2023-07-30T04:31:07;18.80;76.50
38183;DHT22;23991;52.430;10.586;2023-07-30T04:33:33;18.90;75.90
38183;DHT22;23991;52.430;10.586;2023-07-30T04:35:59;19.10;75.80
38183;DHT22;23991;52.430;10.586;2023-07-30T04:38:24;19.10;75.40
38183;DHT22;23991;52.430;10.586;2023-07-30T04:40:50;19.20;75.20
38183;DHT22;23991;52.430;10.586;2023-07-30T04:43:15;19.20;74.60
38183;DHT22;23991;52.430;10.586;2023-07-30T04:45:42;19.30;74.50
38183;DHT22;23991;52.430;10.586;2023-07-30T04:48:08;19.30;74.20
38183;DHT22;23991;52.430;10.586;2023-07-30T04:50:33;19.30;74.00
38183;DHT22;23991;52.430;10.586;2023-07-30T04:52:59;19.40;74.00
38183;DHT22;23991;52.430;10.586;2023-07-30T04:55:24;19.50;73.50
38183;DHT22;23991;52.430;10.586;2023-07-30T04:57:50;19.50;73.10
38183;DHT22;23991;52.430;10.586;2023-07-30T05:00:18;19.60;72.80
38183;DHT22;23991;52.430;10.586;2023-07-30T05:02:43;19.70;72.20
38183;DHT22;23991;52.430;10.586;2023-07-30T05:05:09;19.80;71.90
38183;DHT22;23991;52.430;10.586;2023-07-30T05:07:34;19.80;71.60
38183;DHT22;23991;52.430;10.586;2023-07-30T05:10:00;19.90;70.80
38183;DHT22;23991;52.430;10.586;2023-07-30T05:12:26;19.90;70.60
38183;DHT22;23991;52.430;10.586;2023-07-30T05:14:52;20.00;70.30
38183;DHT22;23991;52.430;10.586;2023-07-30T05:17:17;20.20;69.70
38183;DHT22;23991;52.430;10.586;2023-07-30T05:19:43;20.10;69.40
38183;DHT22;23991;52.430;10.586;2023-07-30T05:22:14;20.30;69.60
38183;DHT22;23991;52.430;10.586;2023-07-30T05:24:40;20.30;68.90
38183;DHT22;23991;52.430;10.586;2023-07-30T05:27:08;20.50;68.40
38183;DHT22;23991;52.430;10.586;2023-07-30T05:29:34;20.70;68.30
38183;DHT22;23991;52.430;10.586;2023-07-30T05:32:01;20.70;68.00
38183;DHT22;23991;52.430;10.586;2023-07-30T05:34:27;20.70;67.30
38183;DHT22;23991;52.430;10.586;2023-07-30T05:36:52;20.80;67.30
38183;DHT22;23991;52.430;10.586;2023-07-30T05:39:18;20.80;67.10
38183;DHT22;23991;52.430;10.586;2023-07-30T05:41:43;20.90;67.10
38183;DHT22;23991;52.430;10.586;2023-07-30T05:44:09;21.00;67.00
38183;DHT22;23991;52.430;10.586;2023-07-30T05:46:38;21.10;66.90
38183;DHT22;23991;52.430;10.586;2023-07-30T05:49:03;21.30;66.20
38183;DHT22;23991;52.430;10.586;2023-07-30T05:51:49;21.30;66.00
38183;DHT22;23991;52.430;10.586;2023-07-30T05:54:17;21.40;65.90
38183;DHT22;23991;52.430;10.586;2023-07-30T05:56:42;21.50;65.30
38183;DHT22;23991;52.430;10.586;2023-07-30T05:59:08;21.60;65.20
38183;DHT22;23991;52.430;10.586;2023-07-30T06:01:34;21.70;65.00
38183;DHT22;23991;52.430;10.586;2023-07-30T06:03:59;21.90;64.70
38183;DHT22;23991;52.430;10.586;2023-07-30T06:06:25;21.90;64.40
38183;DHT22;23991;52.430;10.586;2023-07-30T06:08:54;22.00;64.40
38183;DHT22;23991;52.430;10.586;2023-07-30T06:11:23;22.10;64.40
38183;DHT22;23991;52.430;10.586;2023-07-30T06:13:51;22.20;64.20
38183;DHT22;23991;52.430;10.586;2023-07-30T06:16:17;22.00;64.20
38183;DHT22;23991;52.430;10.586;2023-07-30T06:18:46;22.10;64.20
38183;DHT22;23991;52.430;10.586;2023-07-30T06:21:11;22.20;64.00
38183;DHT22;23991;52.430;10.586;2023-07-30T06:23:37;22.30;63.50
38183;DHT22;23991;52.430;10.586;2023-07-30T06:26:02;22.40;63.20
38183;DHT22;23991;52.430;10.586;2023-07-30T06:28:28;22.60;62.50
38183;DHT22;23991;52.430;10.586;2023-07-30T06:30:53;22.70;62.20
38183;DHT22;23991;52.430;10.586;2023-07-30T06:33:19;22.80;61.50
38183;DHT22;23991;52.430;10.586;2023-07-30T06:35:45;22.90;61.60
38183;DHT22;23991;52.430;10.586;2023-07-30T06:38:10;23.10;61.10
38183;DHT22;23991;52.430;10.586;2023-07-30T06:40:36;23.20;59.90
38183;DHT22;23991;52.430;10.586;2023-07-30T06:43:01;23.30;59.40
38183;DHT22;23991;52.430;10.586;2023-07-30T06:45:27;23.30;59.40
38183;DHT22;23991;52.430;10.586;2023-07-30T06:47:53;23.30;59.20
38183;DHT22;23991;52.430;10.586;2023-07-30T06:50:19;23.30;58.60
38183;DHT22;23991;52.430;10.586;2023-07-30T06:52:44;23.30;59.40
38183;DHT22;23991;52.430;10.586;2023-07-30T06:55:10;23.40;59.60
38183;DHT22;23991;52.430;10.586;2023-07-30T06:57:35;23.60;58.70
38183;DHT22;23991;52.430;10.586;2023-07-30T07:00:01;23.90;57.30
38183;DHT22;23991;52.430;10.586;2023-07-30T07:02:27;24.10;57.10
38183;DHT22;23991;52.430;10.586;2023-07-30T07:04:54;24.40;56.40
38183;DHT22;23991;52.430;10.586;2023-07-30T07:07:20;24.70;55.10
38183;DHT22;23991;52.430;10.586;2023-07-30T07:09:46;24.90;54.00
38183;DHT22;23991;52.430;10.586;2023-07-30T07:12:12;25.00;52.80
38183;DHT22;23991;52.430;10.586;2023-07-30T07:14:37;25.20;52.70
38183;DHT22;23991;52.430;10.586;2023-07-30T07:17:04;25.40;52.40
38183;DHT22;23991;52.430;10.586;2023-07-30T07:19:30;25.70;51.80
38183;DHT22;23991;52.430;10.586;2023-07-30T07:21:56;26.00;51.00
38183;DHT22;23991;52.430;10.586;2023-07-30T07:24:22;26.20;50.00
38183;DHT22;23991;52.430;10.586;2023-07-30T07:26:47;26.40;49.60
38183;DHT22;23991;52.430;10.586;2023-07-30T07:29:13;26.70;48.40
38183;DHT22;23991;52.430;10.586;2023-07-30T07:31:38;26.70;47.90
38183;DHT22;23991;52.430;10.586;2023-07-30T07:34:07;27.00;47.70
38183;DHT22;23991;52.430;10.586;2023-07-30T07:36:33;27.00;47.10
38183;DHT22;23991;52.430;10.586;2023-07-30T07:39:00;27.20;46.20
38183;DHT22;23991;52.430;10.586;2023-07-30T07:41:26;27.50;45.10
38183;DHT22;23991;52.430;10.586;2023-07-30T07:43:52;28.00;44.60
38183;DHT22;23991;52.430;10.586;2023-07-30T07:46:19;27.70;43.40
38183;DHT22;23991;52.430;10.586;2023-07-30T07:48:44;27.90;43.70
38183;DHT22;23991;52.430;10.586;2023-07-30T07:51:10;28.10;42.70
38183;DHT22;23991;52.430;10.586;2023-07-30T07:53:37;28.20;42.60
38183;DHT22;23991;52.430;10.586;2023-07-30T07:56:03;28.40;41.90
38183;DHT22;23991;52.430;10.586;2023-07-30T07:58:29;28.80;42.10
38183;DHT22;23991;52.430;10.586;2023-07-30T08:00:55;28.70;40.40
38183;DHT22;23991;52.430;10.586;2023-07-30T08:03:22;29.10;39.00
38183;DHT22;23991;52.430;10.586;2023-07-30T08:05:48;29.10;37.50
38183;DHT22;23991;52.430;10.586;2023-07-30T08:08:14;29.40;37.00
38183;DHT22;23991;52.430;10.586;2023-07-30T08:10:40;29.50;36.30
38183;DHT22;23991;52.430;10.586;2023-07-30T08:13:10;29.40;36.10
38183;DHT22;23991;52.430;10.586;2023-07-30T08:15:35;29.60;36.00
38183;DHT22;23991;52.430;10.586;2023-07-30T08:18:01;29.50;36.30
38183;DHT22;23991;52.430;10.586;2023-07-30T08:20:27;29.50;36.30
38183;DHT22;23991;52.430;10.586;2023-07-30T08:22:53;29.60;36.20
38183;DHT22;23991;52.430;10.586;2023-07-30T08:25:18;29.70;35.30
38183;DHT22;23991;52.430;10.586;2023-07-30T08:27:44;29.70;35.80
38183;DHT22;23991;52.430;10.586;2023-07-30T08:30:10;30.10;35.90
38183;DHT22;23991;52.430;10.586;2023-07-30T08:32:37;30.60;34.90
38183;DHT22;23991;52.430;10.586;2023-07-30T08:35:03;30.50;34.50
38183;DHT22;23991;52.430;10.586;2023-07-30T08:37:30;30.50;34.70
38183;DHT22;23991;52.430;10.586;2023-07-30T08:39:55;30.30;35.00
38183;DHT22;23991;52.430;10.586;2023-07-30T08:42:21;30.50;35.10
38183;DHT22;23991;52.430;10.586;2023-07-30T08:44:48;31.10;34.80
38183;DHT22;23991;52.430;10.586;2023-07-30T08:47:14;31.30;33.70
38183;DHT22;23991;52.430;10.586;2023-07-30T08:49:40;31.60;32.80
38183;DHT22;23991;52.430;10.586;2023-07-30T08:52:10;31.40;33.10
38183;DHT22;23991;52.430;10.586;2023-07-30T08:54:38;31.70;32.70
38183;DHT22;23991;52.430;10.586;2023-07-30T08:57:06;32.10;32.10
38183;DHT22;23991;52.430;10.586;2023-07-30T08:59:38;32.40;31.00
38183;DHT22;23991;52.430;10.586;2023-07-30T09:02:13;32.80;31.40
38183;DHT22;23991;52.430;10.586;2023-07-30T09:04:46;33.20;30.90
38183;DHT22;23991;52.430;10.586;2023-07-30T09:07:13;33.50;30.90
38183;DHT22;23991;52.430;10.586;2023-07-30T09:09:39;33.40;30.30
38183;DHT22;23991;52.430;10.586;2023-07-30T09:12:13;33.70;30.60
38183;DHT22;23991;52.430;10.586;2023-07-30T09:14:39;33.60;31.50
38183;DHT22;23991;52.430;10.586;2023-07-30T09:17:05;33.70;30.90
38183;DHT22;23991;52.430;10.586;2023-07-30T09:19:35;34.00;30.80
38183;DHT22;23991;52.430;10.586;2023-07-30T09:22:06;34.00;29.90
38183;DHT22;23991;52.430;10.586;2023-07-30T09:24:32;33.70;30.30
38183;DHT22;23991;52.430;10.586;2023-07-30T09:27:01;33.80;30.10
38183;DHT22;23991;52.430;10.586;2023-07-30T09:29:27;34.00;30.40
38183;DHT22;23991;52.430;10.586;2023-07-30T09:31:55;34.00;29.90
38183;DHT22;23991;52.430;10.586;2023-07-30T09:34:24;34.20;29.80
38183;DHT22;23991;52.430;10.586;2023-07-30T09:36:55;34.10;29.70
38183;DHT22;23991;52.430;10.586;2023-07-30T09:39:22;34.70;29.50
38183;DHT22;23991;52.430;10.586;2023-07-30T09:41:52;34.90;29.90
38183;DHT22;23991;52.430;10.586;2023-07-30T09:44:19;34.90;29.70
38183;DHT22;23991;52.430;10.586;2023-07-30T09:46:47;34.90;29.30
38183;DHT22;23991;52.430;10.586;2023-07-30T09:49:14;35.10;28.70
38183;DHT22;23991;52.430;10.586;2023-07-30T09:51:39;34.90;28.50
38183;DHT22;23991;52.430;10.586;2023-07-30T09:54:11;35.10;28.30
38183;DHT22;23991;52.430;10.586;2023-07-30T09:56:38;34.90;28.40
38183;DHT22;23991;52.430;10.586;2023-07-30T09:59:08;34.60;29.00
38183;DHT22;23991;52.430;10.586;2023-07-30T10:01:47;34.50;29.50
38183;DHT22;23991;52.430;10.586;2023-07-30T10:04:20;34.60;29.50
38183;DHT22;23991;52.430;10.586;2023-07-30T10:07:06;34.30;29.00
38183;DHT22;23991;52.430;10.586;2023-07-30T10:09:38;34.40;29.40
38183;DHT22;23991;52.430;10.586;2023-07-30T10:12:15;34.60;29.80
38183;DHT22;23991;52.430;10.586;2023-07-30T10:14:43;34.90;28.70
38183;DHT22;23991;52.430;10.586;2023-07-30T10:17:10;35.20;28.20
38183;DHT22;23991;52.430;10.586;2023-07-30T10:19:36;34.80;28.30
38183;DHT22;23991;52.430;10.586;2023-07-30T10:24:39;35.00;28.30
38183;DHT22;23991;52.430;10.586;2023-07-30T10:27:08;34.50;28.80
38183;DHT22;23991;52.430;10.586;2023-07-30T10:29:36;34.50;28.60
38183;DHT22;23991;52.430;10.586;2023-07-30T10:32:06;34.40;29.10
38183;DHT22;23991;52.430;10.586;2023-07-30T10:34:47;34.30;29.40
38183;DHT22;23991;52.430;10.586;2023-07-30T10:37:24;33.90;30.00
38183;DHT22;23991;52.430;10.586;2023-07-30T10:39:51;33.80;30.00
38183;DHT22;23991;52.430;10.586;2023-07-30T10:42:17;34.20;30.20
38183;DHT22;23991;52.430;10.586;2023-07-30T10:44:45;34.00;30.40
38183;DHT22;23991;52.430;10.586;2023-07-30T10:47:12;34.00;30.70
38183;DHT22;23991;52.430;10.586;2023-07-30T10:49:39;33.70;30.40
38183;DHT22;23991;52.430;10.586;2023-07-30T10:52:06;33.60;30.60
38183;DHT22;23991;52.430;10.586;2023-07-30T10:54:39;33.30;30.80
38183;DHT22;23991;52.430;10.586;2023-07-30T10:57:05;33.10;31.60
38183;DHT22;23991;52.430;10.586;2023-07-30T10:59:36;32.40;32.60
38183;DHT22;23991;52.430;10.586;2023-07-30T11:02:02;32.40;32.90
38183;DHT22;23991;52.430;10.586;2023-07-30T11:04:28;32.20;33.00
38183;DHT22;23991;52.430;10.586;2023-07-30T11:06:54;31.90;33.40
38183;DHT22;23991;52.430;10.586;2023-07-30T11:09:25;31.60;33.50
38183;DHT22;23991;52.430;10.586;2023-07-30T11:11:53;31.20;34.60
38183;DHT22;23991;52.430;10.586;2023-07-30T11:14:23;31.40;34.20
38183;DHT22;23991;52.430;10.586;2023-07-30T11:17:00;31.10;34.70
38183;DHT22;23991;52.430;10.586;2023-07-30T11:19:26;31.30;34.70
38183;DHT22;23991;52.430;10.586;2023-07-30T11:21:54;31.20;34.40
38183;DHT22;23991;52.430;10.586;2023-07-30T11:24:21;30.80;35.20
38183;DHT22;23991;52.430;10.586;2023-07-30T11:27:02;30.80;35.70
38183;DHT22;23991;52.430;10.586;2023-07-30T11:29:28;30.70;35.50
38183;DHT22;23991;52.430;10.586;2023-07-30T11:31:59;31.00;35.40
38183;DHT22;23991;52.430;10.586;2023-07-30T11:34:27;31.10;35.10
38183;DHT22;23991;52.430;10.586;2023-07-30T11:36:54;30.90;35.30
38183;DHT22;23991;52.430;10.586;2023-07-30T11:39:22;30.70;35.50
38183;DHT22;23991;52.430;10.586;2023-07-30T11:41:51;30.70;35.60
38183;DHT22;23991;52.430;10.586;2023-07-30T11:44:34;31.10;35.60
38183;DHT22;23991;52.430;10.586;2023-07-30T11:47:01;31.80;35.10
38183;DHT22;23991;52.430;10.586;2023-07-30T11:49:26;31.90;34.40
38183;DHT22;23991;52.430;10.586;2023-07-30T11:52:05;31.90;34.70
38183;DHT22;23991;52.430;10.586;2023-07-30T11:54:31;32.00;34.90
38183;DHT22;23991;52.430;10.586;2023-07-30T11:56:58;32.00;35.20
38183;DHT22;23991;52.430;10.586;2023-07-30T11:59:24;31.80;35.40
38183;DHT22;23991;52.430;10.586;2023-07-30T12:01:49;31.90;35.50
38183;DHT22;23991;52.430;10.586;2023-07-30T12:04:15;31.70;34.00
38183;DHT22;23991;52.430;10.586;2023-07-30T12:06:48;31.50;34.30
38183;DHT22;23991;52.430;10.586;2023-07-30T12:09:16;32.00;33.70
38183;DHT22;23991;52.430;10.586;2023-07-30T12:11:46;32.10;33.70
38183;DHT22;23991;52.430;10.586;2023-07-30T12:14:19;32.40;33.30
38183;DHT22;23991;52.430;10.586;2023-07-30T12:16:45;31.80;34.00
38183;DHT22;23991;52.430;10.586;2023-07-30T12:19:14;31.70;34.40
38183;DHT22;23991;52.430;10.586;2023-07-30T12:21:39;31.90;34.90
38183;DHT22;23991;52.430;10.586;2023-07-30T12:24:05;31.90;33.90
38183;DHT22;23991;52.430;10.586;2023-07-30T12:26:31;32.10;33.60
38183;DHT22;23991;52.430;10.586;2023-07-30T12:28:59;32.40;33.60
38183;DHT22;23991;52.430;10.586;2023-07-30T12:31:26;32.60;32.70
38183;DHT22;23991;52.430;10.586;2023-07-30T12:34:03;33.00;32.10
38183;DHT22;23991;52.430;10.586;2023-07-30T12:36:30;33.30;32.40
38183;DHT22;23991;52.430;10.586;2023-07-30T12:38:56;33.70;30.70
38183;DHT22;23991;52.430;10.586;2023-07-30T12:41:22;33.40;31.10
38183;DHT22;23991;52.430;10.586;2023-07-30T12:43:55;33.90;31.00
38183;DHT22;23991;52.430;10.586;2023-07-30T12:46:25;34.60;31.10
38183;DHT22;23991;52.430;10.586;2023-07-30T12:48:55;34.90;29.70
38183;DHT22;23991;52.430;10.586;2023-07-30T12:51:22;34.70;30.00
38183;DHT22;23991;52.430;10.586;2023-07-30T12:53:48;34.90;30.10
38183;DHT22;23991;52.430;10.586;2023-07-30T12:56:14;35.10;28.80
38183;DHT22;23991;52.430;10.586;2023-07-30T12:58:41;35.20;28.80
38183;DHT22;23991;52.430;10.586;2023-07-30T13:01:08;35.50;28.40
38183;DHT22;23991;52.430;10.586;2023-07-30T13:03:35;35.70;28.70
38183;DHT22;23991;52.430;10.586;2023-07-30T13:06:02;36.20;27.40
38183;DHT22;23991;52.430;10.586;2023-07-30T13:08:28;36.80;27.80
38183;DHT22;23991;52.430;10.586;2023-07-30T13:10:54;36.70;26.90
38183;DHT22;23991;52.430;10.586;2023-07-30T13:13:19;36.90;26.40
38183;DHT22;23991;52.430;10.586;2023-07-30T13:15:46;37.00;27.10
38183;DHT22;23991;52.430;10.586;2023-07-30T13:18:12;37.10;26.40
38183;DHT22;23991;52.430;10.586;2023-07-30T13:20:41;37.10;26.40
38183;DHT22;23991;52.430;10.586;2023-07-30T13:23:08;37.00;26.40
38183;DHT22;23991;52.430;10.586;2023-07-30T13:25:34;36.90;26.40
38183;DHT22;23991;52.430;10.586;2023-07-30T13:28:00;36.60;26.70
38183;DHT22;23991;52.430;10.586;2023-07-30T13:30:25;36.10;27.20
38183;DHT22;23991;52.430;10.586;2023-07-30T13:32:51;35.70;27.70
38183;DHT22;23991;52.430;10.586;2023-07-30T13:35:17;35.80;27.90
38183;DHT22;23991;52.430;10.586;2023-07-30T13:37:44;35.80;27.20
38183;DHT22;23991;52.430;10.586;2023-07-30T13:40:11;35.80;27.70
38183;DHT22;23991;52.430;10.586;2023-07-30T13:42:37;35.60;27.30
38183;DHT22;23991;52.430;10.586;2023-07-30T13:45:04;35.70;27.20
38183;DHT22;23991;52.430;10.586;2023-07-30T13:47:33;36.00;27.30
38183;DHT22;23991;52.430;10.586;2023-07-30T13:49:59;36.30;26.40
38183;DHT22;23991;52.430;10.586;2023-07-30T13:52:26;36.10;27.00
38183;DHT22;23991;52.430;10.586;2023-07-30T13:55:02;36.10;27.20
38183;DHT22;23991;52.430;10.586;2023-07-30T13:57:29;36.20;27.20
38183;DHT22;23991;52.430;10.586;2023-07-30T13:59:55;36.20;26.00
38183;DHT22;23991;52.430;10.586;2023-07-30T14:02:21;36.30;25.80
38183;DHT22;23991;52.430;10.586;2023-07-30T14:04:47;36.40;26.10
38183;DHT22;23991;52.430;10.586;2023-07-30T14:07:13;36.70;26.00
38183;DHT22;23991;52.430;10.586;2023-07-30T14:09:40;36.40;25.70
38183;DHT22;23991;52.430;10.586;2023-07-30T14:12:08;36.40;25.70
38183;DHT22;23991;52.430;10.586;2023-07-30T14:14:35;36.40;26.00
38183;DHT22;23991;52.430;10.586;2023-07-30T14:17:02;36.50;26.00
38183;DHT22;23991;52.430;10.586;2023-07-30T14:19:31;36.80;26.40
38183;DHT22;23991;52.430;10.586;2023-07-30T14:22:01;36.60;26.10
38183;DHT22;23991;52.430;10.586;2023-07-30T14:24:28;36.60;25.20
38183;DHT22;23991;52.430;10.586;2023-07-30T14:26:55;36.40;25.10
38183;DHT22;23991;52.430;10.586;2023-07-30T14:29:22;36.30;25.10
38183;DHT22;23991;52.430;10.586;2023-07-30T14:31:47;36.60;24.80
38183;DHT22;23991;52.430;10.586;2023-07-30T14:34:13;36.30;25.10
38183;DHT22;23991;52.430;10.586;2023-07-30T14:36:40;36.40;25.20
38183;DHT22;23991;52.430;10.586;2023-07-30T14:39:05;36.20;26.10
38183;DHT22;23991;52.430;10.586;2023-07-30T14:41:33;36.10;26.20
38183;DHT22;23991;52.430;10.586;2023-07-30T14:44:00;35.80;26.60
38183;DHT22;23991;52.430;10.586;2023-07-30T14:46:25;35.60;26.10
38183;DHT22;23991;52.430;10.586;2023-07-30T14:48:51;35.60;25.60
38183;DHT22;23991;52.430;10.586;2023-07-30T14:51:17;35.40;26.10
38183;DHT22;23991;52.430;10.586;2023-07-30T14:53:45;35.20;26.40
38183;DHT22;23991;52.430;10.586;2023-07-30T14:56:10;35.30;26.90
38183;DHT22;23991;52.430;10.586;2023-07-30T14:58:37;35.10;27.20
38183;DHT22;23991;52.430;10.586;2023-07-30T15:01:02;34.60;27.20
38183;DHT22;23991;52.430;10.586;2023-07-30T15:03:29;34.00;28.20
38183;DHT22;23991;52.430;10.586;2023-07-30T15:05:54;33.80;28.20
38183;DHT22;23991;52.430;10.586;2023-07-30T15:08:21;33.50;28.70
38183;DHT22;23991;52.430;10.586;2023-07-30T15:10:47;32.80;29.60
38183;DHT22;23991;52.430;10.586;2023-07-30T15:13:12;32.50;30.30
38183;DHT22;23991;52.430;10.586;2023-07-30T15:15:39;32.10;31.10
38183;DHT22;23991;52.430;10.586;2023-07-30T15:18:06;32.10;31.10